Time;durP1;ratioP1;P1;durP2;ratioP2;P2;SDS_P1;SDS_P2;PMS_P1;PMS_P2;Temp;Humidity;BMP_temperature;BMP_pressure;BME280_temperature;BME280_humidity;BME280_pressure;Samples;Min_cycle;Max_cycle;Signal;HPM_P1;HPM_P2
2023/12/15 00:00:13;;;;;;;14.73;8.32;;;;;;;8.52;77.19;101291.31;5085988;28;20047;-86
2023/12/15 00:03:07;;;;;;;16.20;9.13;;;;;;;8.57;77.26;101291.28;5083745;28;20115;-86
2023/12/15 00:06:02;;;;;;;17.08;8.68;;;;;;;8.50;77.27;101287.28;5087106;28;20043;-86
2023/12/15 00:08:54;;;;;;;14.33;7.23;;;;;;;8.54;77.39;101297.25;5084493;28;20051;-85
2023/12/15 00:11:44;;;;;;;20.38;9.52;;;;;;;8.46;76.59;101294.38;5082982;28;20278;-85
2023/12/15 00:14:38;;;;;;;14.00;7.60;;;;;;;8.34;78.81;101307.47;5083259;28;20409;-86
2023/12/15 00:17:32;;;;;;;26.25;12.90;;;;;;;8.27;78.55;101312.41;5083429;28;20048;-84
2023/12/15 00:20:27;;;;;;;19.00;8.57;;;;;;;8.35;78.04;101311.81;5087804;28;20055;-86
2023/12/15 00:23:22;;;;;;;15.10;7.07;;;;;;;8.40;77.87;101320.72;5084825;28;20055;-86
2023/12/15 00:26:16;;;;;;;13.60;8.15;;;;;;;8.45;77.03;101325.25;5083121;28;20051;-86
2023/12/15 00:29:09;;;;;;;11.52;7.70;;;;;;;8.20;77.13;101326.28;5085750;28;20052;-85
2023/12/15 00:32:03;;;;;;;18.95;7.57;;;;;;;8.08;76.83;101333.94;5083436;28;20060;-86
2023/12/15 00:34:55;;;;;;;11.55;6.55;;;;;;;7.99;77.64;101335.66;5087143;28;20048;-86
2023/12/15 00:37:50;;;;;;;8.98;6.18;;;;;;;8.22;76.79;101353.91;5084479;28;20048;-86
2023/12/15 00:40:44;;;;;;;13.27;7.67;;;;;;;8.19;76.26;101359.88;5081277;28;20039;-86
2023/12/15 00:43:39;;;;;;;9.82;5.65;;;;;;;8.22;76.95;101364.75;5084376;28;20055;-86
2023/12/15 00:46:29;;;;;;;14.80;7.63;;;;;;;8.21;76.08;101376.66;5083062;28;20040;-86
2023/12/15 00:49:23;;;;;;;10.30;7.20;;;;;;;8.07;76.16;101381.13;5085722;28;20043;-86
2023/12/15 00:52:18;;;;;;;14.85;8.23;;;;;;;8.18;76.38;101386.16;5084165;28;20056;-85
2023/12/15 00:55:10;;;;;;;13.32;5.80;;;;;;;8.29;75.92;101396.91;5068994;28;20132;-85
2023/12/15 00:58:04;;;;;;;18.20;8.35;;;;;;;8.18;76.98;101395.41;5084873;28;20039;-86
2023/12/15 01:00:57;;;;;;;14.43;7.03;;;;;;;8.10;76.04;101400.31;5082664;28;20536;-85
2023/12/15 01:03:51;;;;;;;11.50;6.95;;;;;;;8.09;76.35;101403.28;5060175;28;20286;-86
2023/12/15 01:06:43;;;;;;;10.20;5.10;;;;;;;8.01;74.30;101399.28;5077723;28;20036;-86
2023/12/15 01:09:38;;;;;;;13.90;7.18;;;;;;;7.98;75.02;101407.16;5081720;28;20278;-85
2023/12/15 01:12:37;;;;;;;9.90;7.32;;;;;;;7.99;74.51;101420.41;5084757;28;20071;-86
2023/12/15 01:15:32;;;;;;;9.63;6.95;;;;;;;8.03;74.89;101416.06;5081988;28;20047;-85
2023/12/15 01:18:24;;;;;;;6.77;4.93;;;;;;;8.02;75.32;101435.31;5079813;28;20051;-86
2023/12/15 01:21:21;;;;;;;13.13;6.47;;;;;;;7.92;74.67;101436.19;5082279;28;20282;-86
2023/12/15 01:24:16;;;;;;;14.50;6.70;;;;;;;7.65;76.59;101446.59;5078065;28;20048;-86
2023/12/15 01:27:11;;;;;;;10.63;7.50;;;;;;;7.81;76.60;101450.88;5078779;28;20044;-86
2023/12/15 01:30:03;;;;;;;13.38;7.20;;;;;;;7.99;76.04;101446.69;5076049;28;20425;-86
2023/12/15 01:32:58;;;;;;;11.70;6.78;;;;;;;7.92;76.96;101446.22;5060234;28;20056;-84
2023/12/15 01:35:50;;;;;;;9.57;5.28;;;;;;;7.71;76.56;101449.03;5063186;28;20048;-86
2023/12/15 01:38:44;;;;;;;16.05;7.28;;;;;;;7.67;78.18;101450.63;5061905;28;20067;-86
2023/12/15 01:41:39;;;;;;;13.88;7.05;;;;;;;7.50;77.32;101455.59;5064517;28;20048;-86
2023/12/15 01:44:31;;;;;;;10.43;7.18;;;;;;;7.52;77.60;101460.72;5060436;28;20056;-87
2023/12/15 01:47:24;;;;;;;32.47;7.22;;;;;;;7.09;77.43;101470.31;5060677;28;20044;-86
2023/12/15 01:50:16;;;;;;;16.70;6.80;;;;;;;7.59;77.44;101463.94;5063268;28;20059;-86
2023/12/15 01:53:11;;;;;;;14.37;4.50;;;;;;;7.23;77.27;101477.59;5061104;28;20052;-86
2023/12/15 01:56:03;;;;;;;8.63;5.43;;;;;;;7.20;78.94;101480.03;5065670;28;20056;-86
2023/12/15 01:59:01;;;;;;;13.57;6.68;;;;;;;7.43;78.45;101481.31;5061905;28;20056;-86
2023/12/15 02:01:53;;;;;;;14.30;7.18;;;;;;;7.49;78.97;101481.03;5059989;28;20112;-86
2023/12/15 02:04:46;;;;;;;11.65;6.43;;;;;;;7.53;79.26;101484.00;5063481;28;20044;-86
2023/12/15 02:07:40;;;;;;;13.60;6.50;;;;;;;7.36;79.89;101486.22;5061568;28;20036;-86
2023/12/15 02:10:38;;;;;;;11.43;7.82;;;;;;;7.26;79.64;101490.53;5074738;28;20417;-87
2023/12/15 02:13:25;;;;;;;;;;;;;;;7.38;79.87;101508.38;5083003;28;20043;-86
2023/12/15 02:16:17;;;;;;;12.30;6.53;;;;;;;7.33;79.71;101511.91;5081407;28;20401;-85
2023/12/15 02:19:12;;;;;;;22.38;7.82;;;;;;;7.28;79.01;101503.81;5086510;28;20067;-86
2023/12/15 02:22:07;;;;;;;13.00;5.97;;;;;;;7.29;80.17;101502.72;5084116;28;20044;-86
2023/12/15 02:25:01;;;;;;;8.63;5.47;;;;;;;7.14;79.54;101500.06;5082213;28;20401;-86
2023/12/15 02:27:54;;;;;;;9.43;5.93;;;;;;;7.09;80.27;101490.06;5085383;28;20273;-86
2023/12/15 02:30:48;;;;;;;12.57;6.45;;;;;;;7.11;80.49;101500.59;5083371;28;20702;-86
2023/12/15 02:33:43;;;;;;;11.45;6.68;;;;;;;7.41;80.05;101494.31;5083494;28;20047;-85
2023/12/15 02:36:37;;;;;;;9.32;6.30;;;;;;;7.50;79.95;101492.66;5083285;28;20059;-88
2023/12/15 02:39:32;;;;;;;9.45;4.88;;;;;;;7.47;79.02;101498.63;5081613;28;20047;-86
2023/12/15 02:42:27;;;;;;;9.85;5.00;;;;;;;7.55;78.46;101498.88;5084561;28;20047;-84
2023/12/15 02:45:21;;;;;;;17.77;6.00;;;;;;;7.52;79.01;101495.88;5080235;28;20115;-86
2023/12/15 02:48:16;;;;;;;8.93;4.35;;;;;;;7.66;77.60;101508.59;5082888;28;20282;-85
2023/12/15 02:51:10;;;;;;;14.68;6.15;;;;;;;7.47;77.91;101510.25;5080003;28;20071;-87
2023/12/15 02:54:05;;;;;;;11.93;6.40;;;;;;;7.64;76.89;101513.47;5078261;28;20055;-86
2023/12/15 02:57:00;;;;;;;6.82;3.55;;;;;;;7.67;76.63;101522.91;5081707;28;20476;-87
2023/12/15 02:59:50;;;;;;;8.75;5.93;;;;;;;7.73;75.31;101514.50;5078408;28;20515;-88
2023/12/15 03:02:44;;;;;;;6.70;4.95;;;;;;;7.67;75.29;101528.31;5084411;28;20047;-85
2023/12/15 03:05:38;;;;;;;8.43;5.53;;;;;;;7.62;74.78;101525.63;5081766;28;20397;-87
2023/12/15 03:08:33;;;;;;;13.27;5.93;;;;;;;7.41;76.83;101524.91;5077357;28;20052;-87
2023/12/15 03:11:24;;;;;;;7.90;5.50;;;;;;;7.50;76.95;101538.66;5062192;28;20422;-85
2023/12/15 03:14:16;;;;;;;7.47;4.63;;;;;;;7.53;75.46;101532.69;5078072;28;20055;-87
2023/12/15 03:17:11;;;;;;;11.57;4.97;;;;;;;7.45;76.97;101528.69;5078797;28;20409;-86
2023/12/15 03:20:05;;;;;;;8.73;5.87;;;;;;;7.46;76.08;101530.31;5083268;28;20639;-87
2023/12/15 03:23:01;;;;;;;8.88;4.75;;;;;;;7.54;76.16;101537.84;5081050;28;20409;-86
2023/12/15 03:25:56;;;;;;;5.13;3.47;;;;;;;7.53;75.70;101530.81;5084680;28;20047;-87
2023/12/15 03:28:50;;;;;;;6.73;3.80;;;;;;;7.36;76.25;101530.31;5082159;28;20938;-87
2023/12/15 03:31:45;;;;;;;5.03;3.73;;;;;;;7.47;76.92;101529.19;5083708;28;20055;-85
2023/12/15 03:34:37;;;;;;;11.80;4.20;;;;;;;7.36;75.32;101530.31;5082845;28;20277;-85
2023/12/15 03:37:32;;;;;;;7.88;4.35;;;;;;;7.05;76.96;101534.16;5068798;28;20056;-84
2023/12/15 03:40:21;;;;;;;6.72;4.10;;;;;;;7.06;76.86;101536.56;5085201;28;20046;-87
2023/12/15 03:43:15;;;;;;;5.50;3.95;;;;;;;6.99;74.87;101532.50;5084464;28;20047;-86
2023/12/15 03:46:05;;;;;;;5.53;4.13;;;;;;;7.11;74.48;101538.47;5082525;28;20039;-86
2023/12/15 03:49:00;;;;;;;4.25;3.50;;;;;;;7.02;72.92;101529.25;5087029;28;20047;-85
2023/12/15 03:51:55;;;;;;;5.63;4.03;;;;;;;7.01;72.72;101539.25;5083422;28;20048;-87
2023/12/15 03:54:47;;;;;;;4.88;2.92;;;;;;;7.15;73.01;101540.34;5088279;28;20051;-87
2023/12/15 03:57:39;;;;;;;9.05;3.92;;;;;;;6.91;72.11;101533.84;5084742;28;20052;-87
2023/12/15 04:00:34;;;;;;;9.40;4.30;;;;;;;6.96;72.15;101541.19;5083271;28;20055;-86
2023/12/15 04:03:29;;;;;;;7.20;3.05;;;;;;;7.01;71.79;101544.66;5085827;28;20043;-87
2023/12/15 04:06:23;;;;;;;3.50;2.50;;;;;;;7.10;71.97;101543.06;5082243;28;20047;-88
2023/12/15 04:09:18;;;;;;;6.00;3.60;;;;;;;7.08;69.95;101547.09;5077816;28;20286;-86
2023/12/15 04:12:12;;;;;;;4.23;2.67;;;;;;;6.89;69.41;101546.84;5081191;28;20055;-87
2023/12/15 04:15:08;;;;;;;2.78;2.17;;;;;;;6.71;69.32;101564.38;5081898;28;20055;-83
2023/12/15 04:18:04;;;;;;;11.75;3.53;;;;;;;6.48;70.72;101573.00;5080878;28;20051;-87
2023/12/15 04:20:56;;;;;;;5.18;2.58;;;;;;;6.66;70.03;101560.88;5075984;28;20046;-85
2023/12/15 04:23:50;;;;;;;6.95;3.53;;;;;;;6.71;69.73;101567.09;5075757;28;20047;-87
2023/12/15 04:26:45;;;;;;;3.25;2.50;;;;;;;6.20;70.29;101571.56;5077281;28;20031;-88
2023/12/15 04:29:36;;;;;;;6.63;3.38;;;;;;;6.30;69.94;101577.00;5081911;28;20047;-87
2023/12/15 04:32:29;;;;;;;5.95;3.17;;;;;;;6.13;69.62;101568.31;5078938;28;20409;-87
2023/12/15 04:35:21;;;;;;;3.50;3.10;;;;;;;6.28;69.89;101575.66;5083251;28;20051;-87
2023/12/15 04:38:16;;;;;;;3.55;3.10;;;;;;;6.44;69.22;101577.31;5091680;28;20039;-87
2023/12/15 04:41:08;;;;;;;4.20;2.07;;;;;;;6.06;70.18;101569.63;5082206;28;20531;-86
2023/12/15 04:44:00;;;;;;;3.67;3.25;;;;;;;6.37;69.32;101560.53;5079826;28;20047;-88
2023/12/15 04:46:55;;;;;;;3.67;3.20;;;;;;;6.27;70.18;101571.31;5091479;28;20052;-86
2023/12/15 04:49:50;;;;;;;5.00;2.58;;;;;;;5.89;68.98;101578.72;5083566;28;20043;-86
2023/12/15 04:52:44;;;;;;;8.43;5.35;;;;;;;6.05;69.28;101576.91;5078767;28;20728;-87
2023/12/15 04:55:39;;;;;;;4.70;2.75;;;;;;;5.97;69.99;101572.84;5085185;28;20527;-85
2023/12/15 04:58:33;;;;;;;3.45;2.95;;;;;;;6.04;70.08;101577.19;5081598;28;20119;-85
2023/12/15 05:01:25;;;;;;;8.30;2.20;;;;;;;6.16;69.48;101580.47;5086178;28;20047;-85
2023/12/15 05:04:17;;;;;;;4.72;3.58;;;;;;;6.07;69.91;101573.94;5077778;28;20044;-84
2023/12/15 05:07:12;;;;;;;3.15;2.50;;;;;;;6.22;68.92;101569.41;5076826;28;20043;-83
2023/12/15 05:10:05;;;;;;;3.03;2.37;;;;;;;6.27;68.50;101576.72;5080026;28;20410;-83
2023/12/15 05:13:00;;;;;;;4.43;2.95;;;;;;;6.19;68.40;101579.94;5076190;28;20440;-83
2023/12/15 05:15:55;;;;;;;3.37;1.80;;;;;;;6.05;67.67;101606.59;5072011;28;20540;-80
2023/12/15 05:18:47;;;;;;;3.35;2.70;;;;;;;5.76;67.41;101606.16;5077524;28;20047;-81
2023/12/15 05:21:41;;;;;;;3.28;2.55;;;;;;;5.87;68.38;101594.38;5060361;28;20615;-81
2023/12/15 05:24:36;;;;;;;2.97;2.63;;;;;;;5.96;68.02;101602.78;5076801;28;20077;-82
2023/12/15 05:27:30;;;;;;;2.00;1.77;;;;;;;5.93;67.92;101597.91;5077545;28;20043;-80
2023/12/15 05:30:22;;;;;;;4.60;2.63;;;;;;;5.46;68.43;101595.19;5073742;28;20429;-81
2023/12/15 05:33:17;;;;;;;4.00;2.75;;;;;;;5.59;69.54;101610.91;5078947;28;20048;-80
2023/12/15 05:36:15;;;;;;;2.53;2.33;;;;;;;5.69;68.27;101602.09;5077970;28;20040;-83
2023/12/15 05:39:07;;;;;;;3.22;2.92;;;;;;;5.59;68.29;101609.00;5078447;28;20039;-80
2023/12/15 05:42:02;;;;;;;4.38;2.85;;;;;;;5.52;68.49;101613.03;5076018;28;20046;-83
2023/12/15 05:44:56;;;;;;;3.20;1.97;;;;;;;5.92;74.31;101610.59;5071237;28;20035;-81
2023/12/15 05:47:48;;;;;;;2.17;1.97;;;;;;;5.75;68.92;101611.81;5077728;28;20043;-83
2023/12/15 05:50:43;;;;;;;3.30;3.00;;;;;;;6.00;68.73;101620.88;5076042;28;20421;-83
2023/12/15 05:53:35;;;;;;;2.70;2.47;;;;;;;5.93;66.89;101628.44;5075166;28;20527;-82
2023/12/15 05:56:30;;;;;;;6.63;4.33;;;;;;;5.87;66.68;101631.34;5077329;28;20054;-83
2023/12/15 05:59:24;;;;;;;5.35;3.70;;;;;;;5.84;66.38;101638.03;5080496;28;20047;-83
2023/12/15 06:02:21;;;;;;;16.52;10.18;;;;;;;5.84;66.35;101642.66;5079278;28;20043;-81
2023/12/15 06:05:16;;;;;;;4.97;3.13;;;;;;;5.84;64.84;101653.44;5076954;28;20044;-84
2023/12/15 06:08:11;;;;;;;2.27;2.00;;;;;;;5.79;65.64;101658.81;5079796;28;20047;-84
2023/12/15 06:11:05;;;;;;;2.50;2.00;;;;;;;5.59;65.93;101662.16;5074989;28;20286;-86
2023/12/15 06:13:57;;;;;;;1.83;1.63;;;;;;;5.47;66.72;101656.16;5075640;28;20528;-82
2023/12/15 06:16:49;;;;;;;3.00;2.72;;;;;;;5.37;67.02;101650.66;5078766;28;20405;-83
2023/12/15 06:19:47;;;;;;;4.22;3.80;;;;;;;5.50;67.20;101653.72;5074227;28;20417;-84
2023/12/15 06:22:45;;;;;;;3.95;3.55;;;;;;;5.47;67.29;101654.25;5054452;28;20052;-82
2023/12/15 06:25:40;;;;;;;4.47;3.05;;;;;;;5.40;68.25;101661.75;5057908;28;20044;-85
2023/12/15 06:28:34;;;;;;;2.25;2.05;;;;;;;5.35;67.57;101667.09;5057785;28;20100;-86
2023/12/15 06:31:29;;;;;;;2.50;2.30;;;;;;;5.42;66.91;101667.72;5079913;28;20047;-86
2023/12/15 06:34:26;;;;;;;3.95;3.20;;;;;;;5.41;67.62;101676.06;5075729;28;20044;-86
2023/12/15 06:37:21;;;;;;;4.50;2.65;;;;;;;5.35;68.71;101677.06;5080610;28;20430;-86
2023/12/15 06:40:16;;;;;;;3.30;3.00;;;;;;;5.40;68.43;101691.41;5078324;28;20043;-86
2023/12/15 06:43:08;;;;;;;10.57;2.53;;;;;;;4.90;68.98;101702.53;5077357;28;20063;-85
2023/12/15 06:46:00;;;;;;;6.65;3.20;;;;;;;4.90;70.15;101707.91;5079622;28;20047;-85
2023/12/15 06:48:54;;;;;;;4.88;3.22;;;;;;;4.99;72.00;101708.25;5078866;28;20523;-83
2023/12/15 06:51:46;;;;;;;8.55;3.65;;;;;;;4.85;70.94;101709.72;5077707;28;20524;-85
2023/12/15 06:54:41;;;;;;;12.23;3.97;;;;;;;4.52;72.50;101726.88;5080525;28;20413;-84
2023/12/15 06:57:33;;;;;;;;;;;;;;;4.44;75.61;101754.22;5082228;28;20047;-83
2023/12/15 07:00:25;;;;;;;13.60;4.93;;;;;;;4.46;76.33;101746.72;5084525;28;19912;-85
2023/12/15 07:03:20;;;;;;;15.95;5.40;;;;;;;4.60;76.17;101756.03;5081717;28;20051;-85
2023/12/15 07:06:15;;;;;;;7.05;4.78;;;;;;;4.47;76.02;101756.41;5079257;28;20047;-84
2023/12/15 07:09:11;;;;;;;7.77;4.83;;;;;;;4.63;74.68;101756.34;5083577;28;20052;-85
2023/12/15 07:12:03;;;;;;;7.82;4.88;;;;;;;4.74;74.50;101752.72;5080885;28;20067;-84
2023/12/15 07:14:57;;;;;;;23.10;3.97;;;;;;;4.80;73.37;101748.22;5083846;28;20051;-85
2023/12/15 07:17:52;;;;;;;7.32;4.28;;;;;;;4.84;72.91;101762.81;5081447;28;20496;-85
2023/12/15 07:20:44;;;;;;;7.55;4.93;;;;;;;4.83;73.32;101760.34;5078709;28;20524;-85
2023/12/15 07:23:31;;;;;;;16.48;5.00;;;;;;;4.68;73.92;101767.19;5081776;28;20062;-84
2023/12/15 07:26:25;;;;;;;10.65;4.82;;;;;;;4.52;75.91;101776.13;5074658;28;20044;-85
2023/12/15 07:29:25;;;;;;;7.50;4.88;;;;;;;4.48;76.25;101779.56;5084255;28;20397;-83
2023/12/15 07:32:17;;;;;;;11.77;3.30;;;;;;;4.52;74.83;101778.03;5082231;28;20059;-84
2023/12/15 07:35:10;;;;;;;13.27;5.18;;;;;;;4.64;75.24;101784.09;5079680;28;20401;-85
2023/12/15 07:38:05;;;;;;;28.75;6.50;;;;;;;4.63;75.77;101777.91;5082211;28;20044;-84
2023/12/15 07:40:57;;;;;;;12.82;5.63;;;;;;;4.67;74.96;101783.63;5075258;28;20047;-84
2023/12/15 07:43:51;;;;;;;12.80;5.53;;;;;;;4.65;74.92;101793.81;5079234;28;20048;-84
2023/12/15 07:46:46;;;;;;;16.67;5.75;;;;;;;4.73;74.66;101788.00;5082363;28;20532;-84
2023/12/15 07:49:38;;;;;;;8.68;4.05;;;;;;;4.88;73.64;101788.19;5079142;28;20067;-84
2023/12/15 07:52:33;;;;;;;8.57;3.90;;;;;;;4.46;74.68;101795.19;5082946;28;20063;-85
2023/12/15 07:55:27;;;;;;;5.73;3.70;;;;;;;4.62;74.30;101813.19;5081359;28;20043;-84
2023/12/15 07:58:20;;;;;;;12.50;5.28;;;;;;;4.87;73.19;101815.41;5078705;28;20798;-84
2023/12/15 08:01:14;;;;;;;18.05;9.30;;;;;;;4.93;72.01;101822.47;5066704;28;20044;-84
2023/12/15 08:04:09;;;;;;;15.40;7.77;;;;;;;4.79;73.06;101840.88;5078771;28;20063;-84
2023/12/15 08:07:04;;;;;;;12.80;7.70;;;;;;;4.83;72.72;101831.22;5082908;28;20043;-84
2023/12/15 08:09:59;;;;;;;10.13;5.27;;;;;;;4.89;71.84;101851.81;5080506;28;20397;-85
2023/12/15 08:12:51;;;;;;;11.38;5.50;;;;;;;4.81;73.01;101840.66;5078986;28;20540;-84
2023/12/15 08:15:46;;;;;;;11.43;6.13;;;;;;;4.78;72.39;101847.34;5082346;28;20051;-84
2023/12/15 08:18:41;;;;;;;13.60;5.32;;;;;;;4.96;70.84;101852.44;5079867;28;20056;-84
2023/12/15 08:21:35;;;;;;;10.52;4.85;;;;;;;4.98;70.85;101849.47;5083364;28;20406;-84
2023/12/15 08:24:27;;;;;;;8.10;5.60;;;;;;;5.01;72.08;101855.22;5063525;28;20048;-84
2023/12/15 08:27:22;;;;;;;9.13;5.05;;;;;;;4.99;71.35;101867.28;5075149;28;20040;-84
2023/12/15 08:30:16;;;;;;;14.48;6.63;;;;;;;5.14;70.33;101875.56;5079050;28;20414;-85
2023/12/15 08:33:08;;;;;;;11.38;5.28;;;;;;;4.73;70.02;101875.03;5077983;28;20039;-84
2023/12/15 08:36:03;;;;;;;4.50;2.72;;;;;;;4.91;71.49;101886.59;5071929;28;20044;-84
2023/12/15 08:38:55;;;;;;;4.07;3.63;;;;;;;5.06;69.85;101881.41;5074324;28;20044;-85
2023/12/15 08:41:50;;;;;;;13.57;5.60;;;;;;;5.19;70.92;101883.72;5079070;28;20043;-85
2023/12/15 08:44:44;;;;;;;9.52;5.05;;;;;;;5.21;70.82;101875.38;5076638;28;20411;-85
2023/12/15 08:47:37;;;;;;;6.43;4.13;;;;;;;5.06;72.22;101895.72;5079121;28;20043;-85
2023/12/15 08:50:28;;;;;;;4.35;3.30;;;;;;;5.14;71.83;101894.44;5076604;28;20414;-85
2023/12/15 08:53:23;;;;;;;5.05;4.32;;;;;;;5.10;71.79;101901.41;5080068;28;20043;-85
2023/12/15 08:56:15;;;;;;;4.90;2.95;;;;;;;5.08;72.18;101906.22;5079106;28;20047;-85
2023/12/15 08:59:09;;;;;;;4.07;3.40;;;;;;;5.00;72.60;101903.97;5082674;28;20039;-85
2023/12/15 09:01:59;;;;;;;4.20;3.53;;;;;;;5.08;73.94;101917.81;5080565;28;20043;-85
2023/12/15 09:04:51;;;;;;;3.72;3.20;;;;;;;5.09;73.42;101916.75;5078347;28;20073;-84
2023/12/15 09:07:45;;;;;;;4.70;3.88;;;;;;;4.96;74.33;101917.13;5081555;28;20043;-85
2023/12/15 09:10:43;;;;;;;5.07;2.72;;;;;;;4.74;74.70;101916.25;5079207;28;20036;-84
2023/12/15 09:13:40;;;;;;;3.47;2.97;;;;;;;4.76;75.67;101929.50;5072103;28;20410;-85
2023/12/15 09:16:35;;;;;;;4.30;3.35;;;;;;;4.94;74.96;101929.22;5079930;28;20039;-84
2023/12/15 09:19:27;;;;;;;5.32;3.60;;;;;;;4.89;75.31;101943.44;5070137;28;20047;-82
2023/12/15 09:22:21;;;;;;;3.83;3.10;;;;;;;5.10;74.59;101950.75;5075434;28;20043;-85
2023/12/15 09:25:15;;;;;;;4.25;3.20;;;;;;;5.15;74.03;101958.09;5067488;28;20068;-83
2023/12/15 09:28:09;;;;;;;4.07;3.30;;;;;;;5.36;75.07;101965.41;5078305;28;20051;-85
2023/12/15 09:31:04;;;;;;;8.20;3.00;;;;;;;5.07;76.07;101962.03;5074778;28;20413;-85
2023/12/15 09:33:59;;;;;;;4.07;3.03;;;;;;;5.18;75.68;101963.78;5077509;28;20046;-83
2023/12/15 09:36:51;;;;;;;5.43;3.90;;;;;;;5.10;75.72;101972.31;5080420;28;20047;-83
2023/12/15 09:39:42;;;;;;;7.93;5.70;;;;;;;5.34;75.92;101977.47;5078158;28;20036;-83
2023/12/15 09:42:37;;;;;;;7.00;4.50;;;;;;;5.40;75.89;101987.28;5075715;28;20070;-83
2023/12/15 09:45:29;;;;;;;6.72;4.80;;;;;;;5.53;75.82;101976.97;5079936;28;20421;-82
2023/12/15 09:48:24;;;;;;;7.30;5.82;;;;;;;5.62;75.48;101984.59;5076752;28;20047;-82
2023/12/15 09:51:33;;;;;;;5.25;4.32;;;;;;;5.49;76.26;101991.16;5079988;28;20039;-81
2023/12/15 09:54:28;;;;;;;7.05;4.85;;;;;;;5.58;77.52;101981.59;5077074;28;20092;-82
2023/12/15 09:57:20;;;;;;;5.78;3.95;;;;;;;5.62;78.06;101985.41;5079480;28;20052;-82
2023/12/15 10:00:14;;;;;;;7.45;5.18;;;;;;;5.63;77.53;101980.84;5078383;28;20047;-83
2023/12/15 10:03:09;;;;;;;6.60;4.07;;;;;;;5.71;77.60;101988.50;5075682;28;20416;-79
2023/12/15 10:06:03;;;;;;;9.18;5.53;;;;;;;5.80;77.76;101990.50;5073973;28;20044;-82
2023/12/15 10:08:58;;;;;;;9.90;5.73;;;;;;;5.85;77.67;101993.25;5076868;28;20051;-83
2023/12/15 10:11:58;;;;;;;8.38;5.18;;;;;;;5.95;77.95;101996.09;5076776;28;20043;-83
2023/12/15 10:14:52;;;;;;;7.38;5.40;;;;;;;6.07;77.48;101987.03;5079340;28;20531;-83
2023/12/15 10:17:47;;;;;;;5.70;4.47;;;;;;;6.09;77.14;101990.31;5068683;28;20422;-84
2023/12/15 10:20:40;;;;;;;6.00;3.97;;;;;;;6.13;78.22;101986.84;5080507;28;20044;-84
2023/12/15 10:23:36;;;;;;;8.85;5.03;;;;;;;6.24;77.60;101991.28;5079439;28;20047;-84
2023/12/15 10:26:28;;;;;;;;;;;;;;;6.58;77.74;101993.75;5082877;28;20114;-84
2023/12/15 10:29:23;;;;;;;6.03;4.25;;;;;;;6.79;75.71;101990.97;5080727;28;19912;-83
2023/12/15 10:32:18;;;;;;;7.25;5.10;;;;;;;7.04;74.96;101982.22;5078200;28;20043;-82
2023/12/15 10:35:12;;;;;;;6.22;5.03;;;;;;;7.30;75.11;101985.91;5080961;28;20795;-83
2023/12/15 10:38:04;;;;;;;6.68;4.68;;;;;;;7.25;73.78;101999.41;5074970;28;20047;-82
2023/12/15 10:40:59;;;;;;;6.53;5.15;;;;;;;7.35;74.28;101998.66;5081900;28;20051;-80
2023/12/15 10:43:52;;;;;;;8.82;4.65;;;;;;;7.40;74.40;101985.97;5078526;28;20039;-80
2023/12/15 10:46:47;;;;;;;9.27;5.50;;;;;;;7.48;74.49;101990.88;5076553;28;20524;-81
2023/12/15 10:49:39;;;;;;;7.32;4.30;;;;;;;7.14;76.64;101995.00;5079505;28;20051;-81
2023/12/15 10:52:33;;;;;;;8.10;5.18;;;;;;;7.47;76.05;101994.66;5077483;28;20052;-82
2023/12/15 10:55:28;;;;;;;10.50;5.80;;;;;;;7.84;75.45;102002.66;5075491;28;20047;-83
2023/12/15 10:58:22;;;;;;;9.10;5.27;;;;;;;8.13;75.15;101997.59;5078747;28;20048;-82
2023/12/15 11:01:16;;;;;;;11.90;4.95;;;;;;;8.38;73.23;102003.09;5076450;28;20047;-83
2023/12/15 11:04:27;;;;;;;9.90;5.55;;;;;;;8.62;72.67;102005.31;5076416;28;20039;-82
2023/12/15 11:07:29;;;;;;;9.07;6.35;;;;;;;8.82;71.45;102018.88;5066753;28;20065;-82
2023/12/15 11:10:23;;;;;;;11.90;6.18;;;;;;;8.83;70.18;102023.22;5076198;28;20055;-83
2023/12/15 11:13:48;;;;;;;15.43;7.50;;;;;;;9.18;70.85;102016.97;5074305;28;20044;-82
2023/12/15 11:16:46;;;;;;;13.82;7.13;;;;;;;9.39;69.43;102013.13;5079641;28;20039;-83
2023/12/15 11:19:42;;;;;;;18.60;7.70;;;;;;;9.54;68.79;102014.97;5077076;28;20044;-82
2023/12/15 11:22:43;;;;;;;7.65;5.85;;;;;;;9.63;67.76;102013.31;5075409;28;20059;-81
2023/12/15 11:25:51;;;;;;;11.70;6.22;;;;;;;9.77;66.62;102014.34;5077799;28;20063;-82
2023/12/15 11:28:49;;;;;;;11.20;7.25;;;;;;;9.98;67.28;102009.63;5066589;28;20044;-83
2023/12/15 11:31:43;;;;;;;6.47;5.07;;;;;;;10.20;66.61;102007.38;5079023;28;20044;-82
2023/12/15 11:34:44;;;;;;;11.75;6.85;;;;;;;10.37;65.00;102012.44;5071649;28;20051;-82
2023/12/15 11:37:35;;;;;;;7.00;5.40;;;;;;;10.49;65.29;102018.34;5077287;28;20067;-82
2023/12/15 11:40:25;;;;;;;11.57;7.07;;;;;;;10.67;65.49;102023.09;5081086;28;20512;-82
2023/12/15 11:43:17;;;;;;;12.48;7.15;;;;;;;10.89;64.63;102028.91;5078981;28;20051;-83
2023/12/15 11:46:15;;;;;;;9.27;5.80;;;;;;;10.93;64.73;102005.47;5082967;28;20052;-82
2023/12/15 11:49:07;;;;;;;9.43;5.57;;;;;;;11.00;65.02;102008.69;5075288;28;20059;-82
2023/12/15 11:52:00;;;;;;;9.40;5.78;;;;;;;11.07;65.56;102011.88;5084478;28;20048;-82
2023/12/15 11:54:52;;;;;;;7.55;5.80;;;;;;;11.30;64.36;102023.09;5076734;28;20047;-82
2023/12/15 11:57:44;;;;;;;5.75;5.03;;;;;;;11.43;63.47;102025.94;5076789;28;20604;-83
2023/12/15 12:00:33;;;;;;;10.75;6.40;;;;;;;11.55;63.01;102017.38;5082715;28;20057;-83
2023/12/15 12:03:26;;;;;;;8.27;5.68;;;;;;;11.55;62.42;102018.19;5080471;28;20055;-82
2023/12/15 12:06:20;;;;;;;8.05;4.60;;;;;;;11.82;61.69;102027.72;5084661;28;20158;-82
2023/12/15 12:09:15;;;;;;;8.38;5.07;;;;;;;11.89;60.57;102022.72;5081793;28;20055;-82
2023/12/15 12:12:10;;;;;;;6.30;5.18;;;;;;;11.94;61.13;102022.66;5079842;28;20044;-83
2023/12/15 12:15:10;;;;;;;6.97;5.03;;;;;;;12.05;61.58;102026.06;5083627;28;20044;-83
2023/12/15 12:18:05;;;;;;;6.55;4.95;;;;;;;12.11;61.61;102027.63;5081746;28;20047;-83
2023/12/15 12:20:59;;;;;;;8.55;4.78;;;;;;;12.19;61.62;102027.75;5084096;28;20051;-83
2023/12/15 12:23:47;;;;;;;6.07;4.78;;;;;;;12.30;61.19;102023.78;5073534;28;20043;-83
2023/12/15 12:26:40;;;;;;;8.25;5.40;;;;;;;12.43;61.34;102028.53;5080106;28;20401;-83
2023/12/15 12:29:34;;;;;;;8.65;5.60;;;;;;;12.52;60.75;102025.94;5082621;28;20035;-83
2023/12/15 12:32:25;;;;;;;5.22;3.90;;;;;;;12.58;59.82;102016.56;5078522;28;20048;-82
2023/12/15 12:35:15;;;;;;;7.55;4.93;;;;;;;12.71;59.16;102023.19;5076524;28;20043;-83
2023/12/15 12:38:09;;;;;;;4.95;4.25;;;;;;;12.86;58.40;102014.75;5072656;28;20039;-83
2023/12/15 12:41:05;;;;;;;6.57;4.67;;;;;;;12.99;58.60;102010.44;5074988;28;20532;-83
2023/12/15 12:43:57;;;;;;;4.25;3.60;;;;;;;13.11;58.26;102005.28;5078092;28;20047;-84
2023/12/15 12:46:49;;;;;;;5.53;4.10;;;;;;;13.25;57.72;102007.00;5081470;28;20044;-83
2023/12/15 12:49:38;;;;;;;6.65;4.53;;;;;;;13.31;57.23;102007.69;5078152;28;20044;-83
2023/12/15 12:52:33;;;;;;;8.25;4.60;;;;;;;13.43;56.88;102012.66;5082777;28;20040;-82
2023/12/15 12:55:28;;;;;;;6.80;4.75;;;;;;;13.64;56.18;102003.78;5080155;28;20051;-81
2023/12/15 12:58:20;;;;;;;5.50;3.10;;;;;;;14.00;54.52;102003.84;5078081;28;20051;-83
2023/12/15 13:01:10;;;;;;;5.18;3.83;;;;;;;14.14;54.00;102010.09;5081552;28;20043;-83
2023/12/15 13:04:06;;;;;;;5.38;4.28;;;;;;;14.38;54.56;102018.06;5074439;28;20434;-85
2023/12/15 13:06:58;;;;;;;6.10;4.68;;;;;;;14.49;54.19;102016.72;5076761;28;20043;-83
2023/12/15 13:09:47;;;;;;;6.18;3.75;;;;;;;14.64;53.03;102012.78;5079635;28;20087;-83
2023/12/15 13:12:42;;;;;;;5.88;3.95;;;;;;;14.49;52.31;102013.16;5073722;28;20071;-83
2023/12/15 13:15:36;;;;;;;5.40;3.90;;;;;;;14.14;53.00;102009.28;5078598;28;20405;-83
2023/12/15 13:18:28;;;;;;;6.20;4.03;;;;;;;13.91;54.10;102016.63;5079962;28;20056;-83
2023/12/15 13:21:23;;;;;;;5.77;3.43;;;;;;;13.93;54.05;102011.66;5077121;28;20043;-83
2023/12/15 13:24:18;;;;;;;5.80;4.60;;;;;;;13.81;55.15;102005.09;5078855;28;20278;-83
2023/12/15 13:27:10;;;;;;;9.45;4.13;;;;;;;13.98;54.93;102021.66;5080769;28;20107;-83
2023/12/15 13:30:04;;;;;;;9.90;5.38;;;;;;;14.09;55.74;102025.81;5082701;28;20039;-83
2023/12/15 13:32:59;;;;;;;15.73;5.32;;;;;;;14.09;55.13;102031.28;5080374;28;20055;-84